Time;durP1;ratioP1;P1;durP2;ratioP2;P2;SDS_P1;SDS_P2;PMS_P1;PMS_P2;Temp;Humidity;BMP_temperature;BMP_pressure;BME280_temperature;BME280_humidity;BME280_pressure;Samples;Min_cycle;Max_cycle;Signal;HPM_P1;HPM_P2
2023/02/24 00:01:14;;;;;;;55.90;31.60;;;;;;;4.36;87.31;99865.77;103877;1280;100431;-78
2023/02/24 00:03:59;;;;;;;58.90;31.30;;;;;;;4.39;87.22;99860.01;103822;1280;97808;-76
2023/02/24 00:06:44;;;;;;;61.20;34.40;;;;;;;4.42;87.33;99859.84;103890;1279;98113;-76
2023/02/24 00:09:30;;;;;;;56.60;31.00;;;;;;;4.45;87.41;99851.52;104040;1274;98468;-77
2023/02/24 00:12:15;;;;;;;57.60;31.90;;;;;;;4.47;87.54;99846.35;104074;1280;101288;-77
2023/02/24 00:15:00;;;;;;;57.90;31.10;;;;;;;4.48;87.52;99844.16;104169;1276;99985;-75
2023/02/24 00:17:45;;;;;;;51.70;31.20;;;;;;;4.50;87.66;99839.52;104250;1275;97999;-76
2023/02/24 00:20:32;;;;;;;55.30;29.90;;;;;;;4.51;87.82;99835.02;103935;1274;97933;-76
2023/02/24 00:23:17;;;;;;;59.20;32.00;;;;;;;4.52;87.91;99825.84;104042;1278;98433;-76
2023/02/24 00:26:01;;;;;;;66.30;34.60;;;;;;;4.55;87.97;99823.95;104035;1279;101915;-76
2023/02/24 00:28:46;;;;;;;61.50;34.00;;;;;;;4.56;87.97;99818.27;103946;1279;100553;-77
2023/02/24 00:31:31;;;;;;;63.40;32.90;;;;;;;4.57;88.10;99812.34;104016;1274;98058;-78
2023/02/24 00:34:16;;;;;;;56.70;32.20;;;;;;;4.59;88.14;99804.91;103848;1280;99245;-78
2023/02/24 00:37:02;;;;;;;66.30;34.50;;;;;;;4.61;88.09;99800.81;103978;1279;98056;-75
2023/02/24 00:39:47;;;;;;;58.00;34.10;;;;;;;4.62;88.07;99798.77;104015;1275;102474;-76
2023/02/24 00:42:32;;;;;;;63.70;34.00;;;;;;;4.62;88.21;99794.86;104027;1279;99581;-75
2023/02/24 00:45:16;;;;;;;65.90;35.10;;;;;;;4.61;88.24;99791.08;104119;1280;97994;-78
2023/02/24 00:48:03;;;;;;;61.30;34.10;;;;;;;4.62;88.22;99793.92;103901;1276;98030;-77
2023/02/24 00:50:51;;;;;;;60.10;34.40;;;;;;;4.65;88.41;99790.64;105072;1276;96499;-76
2023/02/24 00:53:37;;;;;;;59.70;35.50;;;;;;;4.67;88.31;99787.78;104156;1279;101911;-76
2023/02/24 00:56:27;;;;;;;59.60;34.20;;;;;;;4.67;88.29;99784.86;104253;1279;100187;-76
2023/02/24 00:59:17;;;;;;;58.70;34.10;;;;;;;4.69;88.42;99778.30;104399;1278;99513;-76
2023/02/24 01:02:03;;;;;;;64.70;34.90;;;;;;;4.69;88.32;99777.40;103968;1279;97905;-76
2023/02/24 01:04:49;;;;;;;60.00;34.10;;;;;;;4.69;88.60;99774.29;103997;1276;98572;-75
2023/02/24 01:07:34;;;;;;;68.70;35.20;;;;;;;4.70;88.51;99769.73;104173;1276;101368;-76
2023/02/24 01:10:22;;;;;;;60.30;34.50;;;;;;;4.72;88.55;99758.60;104292;1278;100440;-77
2023/02/24 01:13:06;;;;;;;62.40;33.30;;;;;;;4.71;88.66;99751.44;103912;1274;98507;-76
2023/02/24 01:16:02;;;;;;;56.50;33.00;;;;;;;4.71;88.82;99747.33;104126;1279;98109;-76
2023/02/24 01:18:47;;;;;;;65.80;34.60;;;;;;;4.72;88.80;99736.31;103942;1280;98501;-76
2023/02/24 01:21:32;;;;;;;60.00;34.10;;;;;;;4.71;88.68;99733.52;103727;1279;101337;-75
2023/02/24 01:24:17;;;;;;;58.20;33.70;;;;;;;4.73;88.52;99733.55;104011;1279;99217;-76
2023/02/24 01:27:02;;;;;;;63.80;35.00;;;;;;;4.74;88.71;99733.02;104008;1280;99697;-77
2023/02/24 01:29:47;;;;;;;60.60;32.70;;;;;;;4.76;88.77;99728.90;104135;1279;99284;-78
2023/02/24 01:32:32;;;;;;;66.20;36.00;;;;;;;4.78;88.94;99726.27;103704;1277;99274;-77
2023/02/24 01:35:17;;;;;;;64.10;36.50;;;;;;;4.80;89.08;99724.91;103925;1280;102396;-76
2023/02/24 01:38:02;;;;;;;63.10;35.20;;;;;;;4.82;89.22;99721.69;103812;1274;101492;-76
2023/02/24 01:40:55;;;;;;;61.60;34.20;;;;;;;4.83;89.24;99717.52;103867;1277;97968;-77
2023/02/24 01:44:10;;;;;;;62.50;33.60;;;;;;;4.84;89.24;99712.66;103985;1277;98084;-77
2023/02/24 01:47:08;;;;;;;66.80;36.00;;;;;;;4.84;89.16;99706.59;104266;1276;98063;-76
2023/02/24 01:49:53;;;;;;;65.00;35.90;;;;;;;4.85;89.10;99703.71;103917;1279;101524;-77
2023/02/24 01:52:38;;;;;;;64.40;32.10;;;;;;;4.87;89.20;99705.98;103905;1280;100718;-77
2023/02/24 01:55:30;;;;;;;69.80;36.90;;;;;;;4.86;89.29;99701.91;103910;1274;98982;-76
2023/02/24 01:58:22;;;;;;;61.30;34.50;;;;;;;4.87;89.30;99698.92;103936;1276;98125;-76
2023/02/24 02:01:08;;;;;;;62.70;34.40;;;;;;;4.86;89.46;99689.07;106023;1274;99454;-75
2023/02/24 02:04:01;;;;;;;68.60;37.30;;;;;;;4.86;89.74;99687.44;103998;1274;101327;-75
2023/02/24 02:06:47;;;;;;;66.20;36.20;;;;;;;4.88;89.97;99687.27;103989;1274;100170;-76
2023/02/24 02:09:32;;;;;;;61.60;34.90;;;;;;;4.88;90.20;99684.38;103875;1275;98462;-76
2023/02/24 02:12:17;;;;;;;65.20;35.90;;;;;;;4.87;90.41;99685.02;104290;1274;97992;-75
2023/02/24 02:15:04;;;;;;;69.70;38.70;;;;;;;4.87;90.63;99685.02;104113;1274;98807;-77
2023/02/24 02:18:01;;;;;;;67.00;37.30;;;;;;;4.89;90.87;99683.79;104443;1274;101364;-76
2023/02/24 02:21:24;;;;;;;70.70;39.60;;;;;;;4.90;91.40;99679.20;104253;1279;99760;-77
2023/02/24 02:24:27;;;;;;;68.70;38.40;;;;;;;4.91;91.92;99672.24;103908;1280;98405;-77
2023/02/24 02:27:21;;;;;;;68.90;37.40;;;;;;;4.92;92.11;99667.28;104002;1279;98000;-76
2023/02/24 02:30:42;;;;;;;67.60;36.90;;;;;;;4.93;92.67;99664.20;103861;1277;99689;-76
2023/02/24 02:33:46;;;;;;;76.70;41.90;;;;;;;4.92;93.09;99654.21;104080;1279;102706;-76
2023/02/24 02:36:57;;;;;;;67.20;39.60;;;;;;;4.93;93.37;99649.34;103859;1276;100989;-76
2023/02/24 02:40:01;;;;;;;70.20;41.40;;;;;;;4.93;93.71;99644.03;103860;1279;99401;-77
2023/02/24 02:43:28;;;;;;;70.90;40.30;;;;;;;4.93;94.23;99642.07;103802;1277;99180;-76
2023/02/24 02:46:33;;;;;;;78.80;42.20;;;;;;;4.93;94.46;99641.58;103976;1274;99331;-75
2023/02/24 02:49:37;;;;;;;75.30;41.30;;;;;;;4.94;94.86;99640.25;103868;1274;101356;-76
2023/02/24 02:52:41;;;;;;;76.30;41.30;;;;;;;4.94;95.30;99636.08;104141;1279;100026;-76
2023/02/24 02:55:35;;;;;;;81.20;41.20;;;;;;;4.96;95.48;99634.65;104069;1279;98017;-77
2023/02/24 02:58:26;;;;;;;73.50;41.20;;;;;;;4.97;95.77;99634.55;104148;1274;97994;-77
2023/02/24 03:01:15;;;;;;;;;;;;;;;4.97;96.16;99635.61;104527;1277;98125;-76
2023/02/24 03:04:07;;;;;;;71.30;38.10;;;;;;;4.96;96.43;99634.86;104002;1278;102684;-76
2023/02/24 03:06:58;;;;;;;78.30;43.40;;;;;;;4.97;96.80;99630.68;103939;1274;99119;-76
2023/02/24 03:09:48;;;;;;;85.20;44.80;;;;;;;4.98;96.99;99626.58;104534;1276;97976;-77
2023/02/24 03:12:39;;;;;;;76.10;41.50;;;;;;;5.00;97.03;99622.73;103972;1274;98538;-75
2023/02/24 03:15:27;;;;;;;78.90;43.50;;;;;;;5.02;97.24;99624.28;103983;1280;98507;-76
2023/02/24 03:18:20;;;;;;;78.70;44.30;;;;;;;5.03;97.64;99623.54;104505;1274;101565;-75
2023/02/24 03:21:14;;;;;;;79.30;44.00;;;;;;;5.05;97.81;99624.42;103920;1280;100368;-76
2023/02/24 03:24:01;;;;;;;78.00;44.40;;;;;;;5.07;98.00;99620.66;104072;1280;98881;-75
2023/02/24 03:26:55;;;;;;;83.90;44.20;;;;;;;5.08;98.33;99616.94;103836;1277;98115;-76
2023/02/24 03:29:50;;;;;;;79.50;45.00;;;;;;;5.10;98.63;99616.08;103646;1280;98522;-76
2023/02/24 03:32:49;;;;;;;79.50;44.00;;;;;;;5.12;98.80;99610.02;104290;1274;102664;-75
2023/02/24 03:35:41;;;;;;;87.50;45.70;;;;;;;5.13;99.23;99607.55;104263;1274;99191;-76
2023/02/24 03:38:29;;;;;;;84.80;46.00;;;;;;;5.15;99.43;99603.82;103877;1281;98998;-76
2023/02/24 03:41:16;;;;;;;74.10;42.50;;;;;;;5.16;99.68;99601.59;103975;1279;98004;-76
2023/02/24 03:44:02;;;;;;;79.40;44.80;;;;;;;5.16;99.95;99599.94;104659;1279;97975;-76
2023/02/24 03:46:48;;;;;;;81.20;45.50;;;;;;;5.17;100.00;99590.84;104125;1274;101405;-76
2023/02/24 03:49:36;;;;;;;77.30;46.20;;;;;;;5.19;100.00;99582.02;104131;1274;99448;-76
2023/02/24 03:52:46;;;;;;;87.10;45.50;;;;;;;5.22;100.00;99581.14;104039;1276;99284;-75
2023/02/24 03:55:43;;;;;;;75.10;43.70;;;;;;;5.25;100.00;99582.59;104220;1277;98001;-77
2023/02/24 03:58:42;;;;;;;73.50;43.50;;;;;;;5.27;100.00;99586.95;104016;1279;98545;-77
2023/02/24 04:01:54;;;;;;;80.40;44.40;;;;;;;5.29;100.00;99585.90;104306;1274;101950;-76
2023/02/24 04:05:02;;;;;;;79.10;44.50;;;;;;;5.31;100.00;99577.16;103969;1277;99091;-77
2023/02/24 04:08:03;;;;;;;80.30;45.70;;;;;;;5.32;100.00;99571.46;103804;1274;98026;-77
2023/02/24 04:10:56;;;;;;;82.80;44.50;;;;;;;5.33;100.00;99566.59;103849;1279;98083;-76
2023/02/24 04:13:49;;;;;;;86.20;48.50;;;;;;;5.34;100.00;99567.17;104041;1274;98499;-76
2023/02/24 04:16:47;;;;;;;80.90;45.50;;;;;;;5.35;100.00;99564.21;104088;1279;101481;-76
2023/02/24 04:19:39;;;;;;;83.90;47.10;;;;;;;5.37;100.00;99557.86;104040;1279;100590;-77
2023/02/24 04:22:26;;;;;;;83.20;46.50;;;;;;;5.37;100.00;99553.38;103791;1277;98065;-76
2023/02/24 04:25:15;;;;;;;79.00;46.10;;;;;;;5.39;100.00;99552.63;104085;1279;98127;-77
2023/02/24 04:28:02;;;;;;;78.80;44.20;;;;;;;5.40;100.00;99548.60;104715;1274;98845;-76
2023/02/24 04:30:51;;;;;;;82.20;46.40;;;;;;;5.41;100.00;99544.84;104116;1274;101325;-77
2023/02/24 04:33:39;;;;;;;78.80;46.00;;;;;;;5.42;100.00;99540.09;103838;1276;100171;-76
2023/02/24 04:36:24;;;;;;;89.70;48.40;;;;;;;5.43;100.00;99537.25;103998;1279;98193;-77
2023/02/24 04:39:11;;;;;;;83.70;46.10;;;;;;;5.43;100.00;99536.76;104005;1279;97995;-77
2023/02/24 04:42:00;;;;;;;81.50;44.90;;;;;;;5.42;100.00;99535.41;104185;1279;99920;-76
2023/02/24 04:44:45;;;;;;;78.90;43.80;;;;;;;5.43;100.00;99531.98;104111;1274;102683;-77
2023/02/24 04:47:30;;;;;;;78.30;46.50;;;;;;;5.43;100.00;99525.77;103811;1278;100374;-75
2023/02/24 04:50:21;;;;;;;82.40;46.50;;;;;;;5.44;100.00;99521.05;104016;1278;98026;-78
2023/02/24 04:53:10;;;;;;;84.00;48.30;;;;;;;5.45;100.00;99517.18;103914;1276;98540;-77
2023/02/24 04:55:55;;;;;;;75.30;44.00;;;;;;;5.47;100.00;99518.08;103973;1278;98065;-77
2023/02/24 04:58:41;;;;;;;80.50;47.40;;;;;;;5.47;100.00;99516.39;104006;1279;101419;-77
2023/02/24 05:01:26;;;;;;;91.30;49.70;;;;;;;5.48;100.00;99516.13;103753;1274;99044;-77
2023/02/24 05:04:12;;;;;;;88.70;48.10;;;;;;;5.49;100.00;99514.95;103904;1277;99019;-77
2023/02/24 05:06:57;;;;;;;87.90;46.20;;;;;;;5.51;100.00;99510.04;103986;1274;98164;-77
2023/02/24 05:09:42;;;;;;;86.60;50.70;;;;;;;5.52;100.00;99508.29;103992;1276;98090;-77
2023/02/24 05:12:28;;;;;;;92.90;52.10;;;;;;;5.54;100.00;99505.91;104162;1274;101618;-77
2023/02/24 05:15:13;;;;;;;92.10;50.30;;;;;;;5.56;100.00;99501.40;103929;1276;99177;-76
2023/02/24 05:17:58;;;;;;;97.90;53.00;;;;;;;5.58;100.00;99496.77;104001;1279;97995;-78
2023/02/24 05:23:53;;;;;;;95.20;54.90;;;;;;;5.62;100.00;99495.95;104040;1277;98113;-77
2023/02/24 05:26:40;;;;;;;92.40;50.90;;;;;;;5.64;100.00;99494.74;103966;1274;101433;-77
2023/02/24 05:29:33;;;;;;;84.90;50.00;;;;;;;5.67;100.00;99488.98;103767;1274;99127;-76
2023/02/24 05:32:17;;;;;;;89.30;50.70;;;;;;;5.69;100.00;99487.50;104395;1278;98033;-75
2023/02/24 05:35:03;;;;;;;89.20;49.30;;;;;;;5.72;100.00;99487.88;104014;1277;98449;-76
2023/02/24 05:37:48;;;;;;;84.60;49.20;;;;;;;5.74;100.00;99490.85;104026;1279;98520;-76
2023/02/24 05:40:33;;;;;;;92.20;52.50;;;;;;;5.76;100.00;99488.38;103956;1279;101566;-75
2023/02/24 05:43:18;;;;;;;90.20;50.60;;;;;;;5.78;100.00;99486.57;103898;1279;99195;-76
2023/02/24 05:46:03;;;;;;;82.20;46.60;;;;;;;5.80;100.00;99488.37;103983;1279;99064;-76
2023/02/24 05:48:51;;;;;;;79.00;46.10;;;;;;;5.82;100.00;99489.61;103975;1279;97972;-75
2023/02/24 05:51:38;;;;;;;83.40;50.40;;;;;;;5.84;100.00;99489.70;104032;1279;99175;-77
2023/02/24 05:54:43;;;;;;;86.00;49.60;;;;;;;5.87;100.00;99488.90;103970;1274;102694;-76
2023/02/24 05:57:31;;;;;;;80.10;47.80;;;;;;;5.89;100.00;99486.15;104070;1279;99155;-76
2023/02/24 06:00:16;;;;;;;78.00;46.90;;;;;;;5.90;100.00;99485.73;104309;1277;98001;-76
2023/02/24 06:03:07;;;;;;;81.90;47.20;;;;;;;5.93;100.00;99484.70;103998;1274;98017;-76
2023/02/24 06:05:53;;;;;;;78.10;46.10;;;;;;;5.95;100.00;99480.20;104244;1276;99175;-77
2023/02/24 06:08:41;;;;;;;80.20;47.30;;;;;;;5.97;100.00;99471.36;103851;1277;102754;-76
2023/02/24 06:11:26;;;;;;;70.50;43.00;;;;;;;5.99;100.00;99471.98;104032;1279;99198;-77
2023/02/24 06:14:11;;;;;;;79.10;44.10;;;;;;;6.01;100.00;99471.55;104133;1274;98708;-76
2023/02/24 06:16:56;;;;;;;83.20;46.00;;;;;;;6.03;100.00;99470.02;104220;1279;98120;-76
2023/02/24 06:19:41;;;;;;;79.70;44.20;;;;;;;6.05;100.00;99465.87;104244;1274;98001;-76
2023/02/24 06:22:26;;;;;;;87.30;47.70;;;;;;;6.06;100.00;99465.52;104278;1274;101472;-75
2023/02/24 06:25:11;;;;;;;87.60;51.50;;;;;;;6.08;100.00;99469.23;104265;1278;100484;-75
2023/02/24 06:28:00;;;;;;;76.30;45.30;;;;;;;6.10;100.00;99469.34;104220;1279;99178;-76
2023/02/24 06:30:45;;;;;;;84.00;47.40;;;;;;;6.11;100.00;99465.63;104299;1274;97995;-76
2023/02/24 06:33:30;;;;;;;86.20;46.60;;;;;;;6.12;100.00;99461.80;104286;1276;97939;-77
2023/02/24 06:36:14;;;;;;;83.40;47.40;;;;;;;6.13;100.00;99459.52;104237;1278;102767;-77
2023/02/24 06:38:59;;;;;;;85.90;44.60;;;;;;;6.15;100.00;99457.70;104299;1278;99248;-76
2023/02/24 06:41:47;;;;;;;85.30;47.70;;;;;;;6.18;100.00;99455.46;104311;1277;99527;-76
2023/02/24 06:44:34;;;;;;;83.70;46.30;;;;;;;6.20;100.00;99452.31;104023;1279;97987;-77
2023/02/24 06:47:21;;;;;;;86.00;46.50;;;;;;;6.23;100.00;99452.35;104403;1274;98004;-78
2023/02/24 06:50:06;;;;;;;84.50;47.10;;;;;;;6.26;100.00;99451.04;104376;1274;101482;-77
2023/02/24 06:52:59;;;;;;;81.20;44.80;;;;;;;6.29;100.00;99452.22;104222;1277;99213;-77
2023/02/24 06:55:47;;;;;;;77.90;42.00;;;;;;;6.31;100.00;99452.85;104072;1279;98551;-76
2023/02/24 06:58:32;;;;;;;79.50;44.30;;;;;;;6.33;100.00;99451.31;103819;1276;98141;-76
2023/02/24 07:01:24;;;;;;;74.90;41.50;;;;;;;6.36;100.00;99449.88;104032;1279;98558;-76
2023/02/24 07:07:01;;;;;;;74.40;40.40;;;;;;;6.41;100.00;99450.27;104252;1274;100711;-76
2023/02/24 07:09:46;;;;;;;72.30;38.80;;;;;;;6.43;100.00;99452.29;104569;1274;99083;-77
2023/02/24 07:12:30;;;;;;;84.10;44.90;;;;;;;6.45;100.00;99447.70;104205;1274;98006;-77
2023/02/24 07:15:16;;;;;;;78.70;42.10;;;;;;;6.47;100.00;99448.20;103908;1280;97882;-77
2023/02/24 07:18:03;;;;;;;94.40;50.00;;;;;;;6.48;100.00;99445.23;103981;1279;102127;-77
2023/02/24 07:20:48;;;;;;;84.60;46.50;;;;;;;6.49;100.00;99445.60;104040;1279;100401;-76
2023/02/24 07:23:33;;;;;;;85.90;47.70;;;;;;;6.50;100.00;99446.55;104021;1280;98412;-77
2023/02/24 07:26:21;;;;;;;82.90;45.00;;;;;;;6.50;100.00;99443.45;104150;1277;98013;-77
2023/02/24 07:29:10;;;;;;;88.20;45.70;;;;;;;6.51;100.00;99439.09;103888;1278;97930;-77
2023/02/24 07:32:00;;;;;;;82.50;45.70;;;;;;;6.52;100.00;99439.30;105159;1277;101864;-76
2023/02/24 07:34:44;;;;;;;83.10;50.10;;;;;;;6.55;100.00;99437.57;103909;1277;100135;-76
2023/02/24 07:37:30;;;;;;;86.80;51.00;;;;;;;6.58;100.00;99433.67;103805;1280;99047;-73
2023/02/24 07:40:16;;;;;;;90.10;57.50;;;;;;;6.59;100.00;99425.47;103977;1277;98121;-76
2023/02/24 07:43:02;;;;;;;101.10;64.60;;;;;;;6.61;100.00;99422.48;104548;1274;98479;-83
2023/02/24 07:45:47;;;;;;;100.80;65.40;;;;;;;6.63;100.00;99419.77;104745;1277;102553;-82
2023/02/24 07:48:35;;;;;;;81.40;47.40;;;;;;;6.64;100.00;99416.14;104717;1279;101718;-83
2023/02/24 07:51:23;;;;;;;79.00;48.80;;;;;;;6.65;100.00;99414.95;104760;1277;97946;-81
2023/02/24 07:54:10;;;;;;;71.40;44.70;;;;;;;6.67;100.00;99409.44;104457;1279;98747;-82
2023/02/24 07:56:57;;;;;;;101.30;54.80;;;;;;;6.68;100.00;99407.08;104640;1277;98070;-83
2023/02/24 07:59:45;;;;;;;131.80;75.10;;;;;;;6.71;100.00;99405.18;104914;1276;102554;-81
2023/02/24 08:02:30;;;;;;;102.40;59.20;;;;;;;6.73;100.00;99402.09;104812;1279;99736;-81
2023/02/24 08:05:20;;;;;;;73.70;46.20;;;;;;;6.74;100.00;99398.73;104782;1276;98947;-86
2023/02/24 08:08:06;;;;;;;68.30;41.90;;;;;;;6.77;100.00;99392.05;104669;1280;97892;-82
2023/02/24 08:11:02;;;;;;;65.00;37.60;;;;;;;6.79;100.00;99391.42;104811;1277;99145;-83
2023/02/24 08:13:48;;;;;;;72.90;42.30;;;;;;;6.81;100.00;99385.42;104852;1282;102588;-80
2023/02/24 08:16:38;;;;;;;64.30;40.40;;;;;;;6.85;100.00;99382.13;104888;1280;100438;-81
2023/02/24 08:19:38;;;;;;;61.40;36.90;;;;;;;6.87;100.00;99381.63;104987;1276;100222;-81
2023/02/24 08:22:34;;;;;;;56.10;32.40;;;;;;;6.90;100.00;99382.38;105041;1280;97991;-79
2023/02/24 08:25:37;;;;;;;60.80;36.50;;;;;;;6.91;100.00;99384.15;105086;1279;97987;-81
2023/02/24 08:28:25;;;;;;;87.00;46.90;;;;;;;6.93;100.00;99382.52;104860;1275;101440;-82
2023/02/24 08:31:11;;;;;;;105.60;52.90;;;;;;;6.94;100.00;99381.84;104864;1279;99170;-83
2023/02/24 08:37:05;;;;;;;55.40;34.20;;;;;;;6.96;100.00;99370.19;104764;1277;97905;-79
2023/02/24 08:39:52;;;;;;;59.10;35.70;;;;;;;6.96;100.00;99367.94;104281;1277;97998;-79
2023/02/24 08:42:38;;;;;;;60.10;38.00;;;;;;;6.97;100.00;99366.04;104150;1278;103651;-82
2023/02/24 08:45:27;;;;;;;63.10;36.10;;;;;;;6.98;100.00;99365.23;104885;1280;99097;-79
2023/02/24 08:48:24;;;;;;;56.00;31.70;;;;;;;6.98;100.00;99365.65;104493;1279;98284;-80
2023/02/24 08:51:42;;;;;;;48.90;28.00;;;;;;;6.99;100.00;99360.83;105403;1277;98102;-81
2023/02/24 08:54:30;;;;;;;44.70;26.60;;;;;;;6.96;100.00;99356.18;105358;1277;98641;-81
2023/02/24 08:57:17;;;;;;;44.90;26.90;;;;;;;6.94;100.00;99353.25;104359;1279;101366;-83
2023/02/24 09:00:05;;;;;;;58.00;33.80;;;;;;;6.92;100.00;99349.92;104627;1280;100342;-86
2023/02/24 09:02:55;;;;;;;44.30;30.00;;;;;;;6.91;100.00;99346.68;104906;1281;99335;-85
2023/02/24 09:05:40;;;;;;;45.90;28.60;;;;;;;6.91;100.00;99344.10;104610;1280;98087;-83
2023/02/24 09:08:31;;;;;;;37.10;21.80;;;;;;;6.92;100.00;99340.00;104658;1276;98558;-85
2023/02/24 09:11:17;;;;;;;37.40;19.10;;;;;;;6.90;100.00;99341.52;104995;1277;103701;-84
2023/02/24 09:14:03;;;;;;;31.30;16.80;;;;;;;6.88;100.00;99341.95;104890;1277;99031;-82
2023/02/24 09:17:01;;;;;;;34.60;19.20;;;;;;;6.86;100.00;99334.23;104943;1277;99169;-83
2023/02/24 09:23:44;;;;;;;29.20;15.50;;;;;;;6.86;100.00;99331.64;104740;1278;98090;-83
2023/02/24 09:25:48;;;;;;;30.60;19.10;;;;;;;6.83;100.00;99330.39;104776;1277;102555;-78
2023/02/24 09:28:47;;;;;;;26.30;16.00;;;;;;;6.83;100.00;99332.44;104331;1276;100063;-78
2023/02/24 09:31:39;;;;;;;28.60;15.40;;;;;;;6.82;100.00;99337.88;104355;1280;98499;-78
2023/02/24 09:34:28;;;;;;;29.00;16.20;;;;;;;6.80;100.00;99336.72;104134;1279;97976;-78
2023/02/24 09:37:26;;;;;;;27.10;14.50;;;;;;;6.81;100.00;99333.86;104248;1279;99703;-78
2023/02/24 09:42:59;;;;;;;27.30;13.70;;;;;;;6.81;100.00;99325.73;103970;1276;99405;-76
2023/02/24 09:46:12;;;;;;;27.80;13.20;;;;;;;6.78;100.00;99326.92;104345;1279;99614;-77
2023/02/24 09:49:11;;;;;;;21.10;12.20;;;;;;;6.75;100.00;99330.91;105105;1277;98880;-83
2023/02/24 09:51:59;;;;;;;25.30;12.50;;;;;;;6.73;100.00;99328.33;105077;1284;98687;-83
2023/02/24 10:01:19;;;;;;;63.90;32.60;;;;;;;6.80;100.00;99316.98;105204;1282;99572;-80
2023/02/24 10:04:34;;;;;;;101.80;48.70;;;;;;;6.82;100.00;99311.86;105186;1274;97905;-84
2023/02/24 10:07:37;;;;;;;80.60;39.70;;;;;;;6.86;100.00;99303.36;105578;1274;98000;-81
2023/02/24 10:10:29;;;;;;;46.70;23.90;;;;;;;6.89;100.00;99301.54;105418;1278;102154;-83
2023/02/24 10:13:29;;;;;;;48.10;26.90;;;;;;;6.94;100.00;99296.35;105074;1279;100363;-87
2023/02/24 10:16:25;;;;;;;61.90;34.70;;;;;;;6.99;100.00;99297.50;104945;1278;99038;-84
2023/02/24 10:19:28;;;;;;;41.70;26.90;;;;;;;7.03;100.00;99294.99;105076;1278;98090;-83
2023/02/24 10:22:26;;;;;;;47.50;28.30;;;;;;;7.05;100.00;99290.51;104779;1277;99792;-83
2023/02/24 10:25:41;;;;;;;41.10;24.30;;;;;;;7.08;100.00;99290.19;104925;1279;102526;-87
2023/02/24 10:28:50;;;;;;;50.30;24.30;;;;;;;7.12;100.00;99285.38;104634;1279;99326;-80
2023/02/24 10:32:15;;;;;;;36.00;19.90;;;;;;;7.16;100.00;99285.93;104986;1274;97952;-85
2023/02/24 10:35:01;;;;;;;38.60;20.10;;;;;;;7.18;100.00;99280.50;104726;1276;98798;-83
2023/02/24 10:37:48;;;;;;;33.60;19.80;;;;;;;7.19;100.00;99279.02;104749;1277;99795;-86
2023/02/24 10:40:55;;;;;;;40.00;20.10;;;;;;;7.19;100.00;99276.90;104804;1276;101997;-82
2023/02/24 10:43:52;;;;;;;39.30;19.60;;;;;;;7.18;100.00;99273.33;104836;1279;100362;-76
2023/02/24 10:46:37;;;;;;;45.20;22.70;;;;;;;7.16;100.00;99263.11;104085;1279;99179;-88
2023/02/24 10:49:25;;;;;;;54.70;27.80;;;;;;;7.18;100.00;99257.71;104401;1280;97993;-84
2023/02/24 10:52:32;;;;;;;47.80;26.60;;;;;;;7.20;100.00;99254.28;103703;1282;98641;-76
2023/02/24 10:58:36;;;;;;;45.10;24.60;;;;;;;7.23;100.00;99245.73;104022;1286;99485;-77
2023/02/24 11:01:39;;;;;;;45.70;24.80;;;;;;;7.23;100.00;99245.48;103942;1280;98281;-76
2023/02/24 11:05:03;;;;;;;40.60;23.20;;;;;;;7.24;100.00;99244.67;104102;1279;98321;-77
2023/02/24 11:07:54;;;;;;;39.60;22.10;;;;;;;7.23;100.00;99236.27;104258;1277;97963;-77
2023/02/24 11:10:51;;;;;;;40.10;19.70;;;;;;;7.24;100.00;99224.60;105054;1277;103581;-79
2023/02/24 11:19:59;;;;;;;40.20;23.10;;;;;;;7.33;100.00;99210.50;104378;1274;98006;-75
2023/02/24 11:22:50;;;;;;;40.10;20.80;;;;;;;7.38;100.00;99201.50;104271;1280;98055;-77
2023/02/24 11:25:39;;;;;;;32.30;18.10;;;;;;;7.42;100.00;99193.64;104500;1278;101441;-76
2023/02/24 11:28:36;;;;;;;35.90;18.80;;;;;;;7.44;100.00;99186.48;104302;1288;99135;-75
2023/02/24 11:31:45;;;;;;;33.60;18.20;;;;;;;7.47;100.00;99181.02;105043;1274;98097;-77
2023/02/24 11:35:04;;;;;;;35.00;19.20;;;;;;;7.50;100.00;99178.86;104908;1282;99102;-84
2023/02/24 11:38:16;;;;;;;32.50;18.40;;;;;;;7.50;100.00;99180.34;104559;1281;98514;-83
2023/02/24 11:41:10;;;;;;;54.70;27.80;;;;;;;7.44;100.00;99172.98;105091;1280;102530;-85
2023/02/24 11:44:03;;;;;;;37.40;20.90;;;;;;;7.40;100.00;99173.14;104921;1280;99231;-86
2023/02/24 11:46:56;;;;;;;35.00;19.10;;;;;;;7.40;100.00;99166.96;105032;1280;99319;-83
2023/02/24 11:49:59;;;;;;;35.70;18.70;;;;;;;7.42;100.00;99159.95;104717;1286;98008;-80
2023/02/24 11:52:48;;;;;;;31.80;18.30;;;;;;;7.46;100.00;99157.30;105624;1277;97871;-85
2023/02/24 11:55:39;;;;;;;32.10;17.70;;;;;;;7.51;100.00;99155.66;104686;1282;101316;-85
2023/02/24 11:58:31;;;;;;;;;;;;;;;7.55;100.00;99152.81;104757;1285;99798;-83
2023/02/24 12:01:28;;;;;;;28.40;16.80;;;;;;;7.58;100.00;99150.36;104745;1280;100122;-82
2023/02/24 12:04:28;;;;;;;23.80;14.20;;;;;;;7.61;100.00;99145.77;104833;1290;97978;-85
2023/02/24 12:07:22;;;;;;;30.50;16.80;;;;;;;7.64;100.00;99143.93;104748;1277;97615;-88
2023/02/24 12:10:22;;;;;;;27.80;14.50;;;;;;;7.69;100.00;99145.04;104812;1283;101405;-84
2023/02/24 12:13:23;;;;;;;27.30;15.50;;;;;;;7.73;100.00;99135.94;104856;1282;100462;-86
2023/02/24 12:16:13;;;;;;;24.20;14.60;;;;;;;7.74;100.00;99134.59;105033;1276;98000;-85
2023/02/24 12:19:53;;;;;;;;;;;;;;;;;;;;;
2023/02/24 12:22:54;;;;;;;26.30;13.60;;;;;;;7.67;100.00;99120.34;104754;1279;99723;-85
2023/02/24 12:26:00;;;;;;;28.70;13.90;;;;;;;7.67;100.00;99117.64;104528;1277;101392;-84
2023/02/24 12:29:21;;;;;;;24.60;12.10;;;;;;;7.68;100.00;99115.52;104811;1283;100381;-87
2023/02/24 12:32:15;;;;;;;34.50;16.20;;;;;;;7.68;100.00;99112.73;104802;1277;99026;-83
2023/02/24 12:35:18;;;;;;;39.50;19.10;;;;;;;7.68;100.00;99109.69;104922;1283;98081;-83
2023/02/24 12:38:32;;;;;;;45.90;20.30;;;;;;;7.70;100.00;99102.52;104787;1279;97799;-82
2023/02/24 12:41:45;;;;;;;32.90;17.40;;;;;;;7.70;100.00;99097.44;105067;1277;102172;-84
2023/02/24 12:45:07;;;;;;;28.50;15.50;;;;;;;7.68;100.00;99093.02;105043;1279;100023;-82
2023/02/24 12:48:17;;;;;;;26.00;14.30;;;;;;;7.60;100.00;99089.39;104880;1280;98941;-80
2023/02/24 12:51:11;;;;;;;27.00;13.60;;;;;;;7.53;100.00;99083.09;104925;1277;98041;-84
2023/02/24 12:54:14;;;;;;;25.80;14.10;;;;;;;7.50;100.00;99079.80;105168;1279;98464;-88
2023/02/24 12:57:35;;;;;;;23.10;12.90;;;;;;;7.48;100.00;99073.73;104813;1280;102697;-82
2023/02/24 13:00:29;;;;;;;24.60;11.90;;;;;;;7.47;100.00;99070.36;104835;1280;101306;-86
2023/02/24 13:03:53;;;;;;;21.40;12.00;;;;;;;7.46;100.00;99061.80;104702;1282;99063;-84
2023/02/24 13:06:57;;;;;;;20.60;10.70;;;;;;;7.48;100.00;99059.52;105046;1279;97067;-83
2023/02/24 13:10:00;;;;;;;17.80;10.70;;;;;;;7.51;100.00;99059.80;105025;1277;98293;-88
2023/02/24 13:12:55;;;;;;;21.70;11.90;;;;;;;7.54;100.00;99049.63;105004;1273;102642;-83
2023/02/24 13:15:56;;;;;;;19.90;11.60;;;;;;;7.58;100.00;99049.80;104943;1273;99093;-77
2023/02/24 13:18:45;;;;;;;19.10;11.20;;;;;;;7.62;100.00;99043.00;104063;1275;97993;-88
2023/02/24 13:21:32;;;;;;;16.00;10.20;;;;;;;7.69;100.00;99038.96;104606;1273;98567;-77
2023/02/24 13:24:21;;;;;;;28.40;17.10;;;;;;;7.78;100.00;99030.63;103828;1279;99591;-76
2023/02/24 13:27:13;;;;;;;21.60;12.50;;;;;;;7.87;100.00;99031.23;103891;1282;103874;-76
2023/02/24 13:30:05;;;;;;;23.40;13.70;;;;;;;7.92;100.00;99027.05;103970;1279;99571;-77
2023/02/24 13:33:03;;;;;;;20.90;12.70;;;;;;;7.95;99.79;99023.11;104085;1279;98555;-77
2023/02/24 13:36:07;;;;;;;18.80;10.00;;;;;;;7.95;99.46;99018.73;103786;1280;98037;-76
2023/02/24 13:39:05;;;;;;;14.90;10.40;;;;;;;7.95;99.06;99017.90;106961;1274;95758;-78